Time;durP1;ratioP1;P1;durP2;ratioP2;P2;SDS_P1;SDS_P2;PMS_P1;PMS_P2;Temp;Humidity;BMP_temperature;BMP_pressure;BME280_temperature;BME280_humidity;BME280_pressure;Samples;Min_cycle;Max_cycle;Signal;HPM_P1;HPM_P2
2021/06/27 00:00:38;;;;;;;2.65;2.42;;;;;;;20.82;77.52;98987.05;1662064;84;22430;-53
2021/06/27 00:03:05;;;;;;;6.87;3.60;;;;;;;20.81;77.58;98985.32;1665944;84;21086;-53
2021/06/27 00:05:32;;;;;;;5.47;3.55;;;;;;;20.80;77.71;98983.60;1659878;84;21050;-53
2021/06/27 00:07:59;;;;;;;4.45;3.98;;;;;;;20.83;77.83;98986.54;1663229;84;22374;-53
2021/06/27 00:10:29;;;;;;;4.72;3.47;;;;;;;20.85;77.89;98989.95;1663182;84;20972;-53
2021/06/27 00:12:55;;;;;;;8.53;3.55;;;;;;;20.86;77.94;98994.41;1659651;84;21067;-53
2021/06/27 00:15:33;;;;;;;3.27;2.70;;;;;;;20.84;77.92;98990.45;1660631;84;21062;-53
2021/06/27 00:18:00;;;;;;;8.53;3.00;;;;;;;20.85;78.04;98985.34;1659441;84;22573;-52
2021/06/27 00:20:27;;;;;;;8.73;3.55;;;;;;;20.85;78.00;98978.50;1662568;84;21560;-53
2021/06/27 00:22:54;;;;;;;5.62;3.50;;;;;;;20.84;78.02;98978.69;1656380;84;21616;-53
2021/06/27 00:25:25;;;;;;;8.83;3.30;;;;;;;20.83;78.05;98974.23;1710864;81;21568;-53
2021/06/27 00:27:51;;;;;;;5.00;3.25;;;;;;;20.82;77.96;98969.27;1713451;81;21574;-53
2021/06/27 00:30:38;;;;;;;5.62;3.10;;;;;;;20.79;77.88;98966.84;1719420;81;21563;-53
2021/06/27 00:33:04;;;;;;;3.87;3.27;;;;;;;20.75;78.00;98962.20;1694707;82;21190;-53
2021/06/27 00:35:31;;;;;;;5.97;3.02;;;;;;;20.74;78.06;98953.65;1694982;82;21694;-53
2021/06/27 00:37:58;;;;;;;3.27;2.98;;;;;;;20.72;78.05;98961.14;1694181;82;21536;-53
2021/06/27 00:40:26;;;;;;;3.80;3.50;;;;;;;20.71;78.05;98960.79;1691427;82;21088;-53
2021/06/27 00:42:53;;;;;;;3.45;3.17;;;;;;;20.71;78.08;98968.99;1711230;80;21790;-53
2021/06/27 00:45:21;;;;;;;3.12;2.90;;;;;;;20.70;78.13;98977.34;1721237;80;21484;-53
2021/06/27 00:47:48;;;;;;;4.45;2.60;;;;;;;20.70;78.12;98980.08;1718660;80;21520;-53
2021/06/27 00:50:25;;;;;;;5.33;3.58;;;;;;;20.71;78.01;98979.93;1723624;80;21546;-53
2021/06/27 00:52:52;;;;;;;2.62;2.42;;;;;;;20.71;77.93;98981.30;1716944;80;21438;-53
2021/06/27 00:55:18;;;;;;;5.05;2.98;;;;;;;20.70;77.82;98992.39;1720503;80;22181;-53
2021/06/27 00:57:49;;;;;;;3.90;2.98;;;;;;;20.69;77.79;99002.97;1718089;80;21482;-53
2021/06/27 01:00:18;;;;;;;4.53;3.35;;;;;;;20.67;77.78;98992.19;1723668;80;20939;-53
2021/06/27 01:02:45;;;;;;;3.60;3.50;;;;;;;20.67;77.72;98987.25;1723050;80;22175;-53
2021/06/27 01:05:16;;;;;;;6.42;4.20;;;;;;;20.64;77.52;98984.31;1723796;80;20928;-53
2021/06/27 01:07:42;;;;;;;4.08;3.70;;;;;;;20.64;77.24;98998.48;1720754;80;20899;-53
2021/06/27 01:10:09;;;;;;;7.90;2.75;;;;;;;20.61;77.07;98996.92;1726674;80;20955;-53
2021/06/27 01:12:35;;;;;;;3.87;2.55;;;;;;;20.58;77.07;98987.68;1724818;80;20984;-53
2021/06/27 01:15:04;;;;;;;4.10;2.25;;;;;;;20.53;77.06;98984.53;1722769;80;21097;-53
2021/06/27 01:17:30;;;;;;;5.12;2.12;;;;;;;20.50;77.17;98988.93;1726041;80;21054;-53
2021/06/27 01:19:57;;;;;;;2.33;2.12;;;;;;;20.48;77.14;98982.78;1728606;80;20970;-53
2021/06/27 01:22:26;;;;;;;7.92;2.10;;;;;;;20.47;77.09;99000.70;1724053;80;20996;-53
2021/06/27 01:24:53;;;;;;;4.08;2.25;;;;;;;20.45;77.05;98998.62;1721566;80;20920;-51
2021/06/27 01:27:20;;;;;;;3.00;2.45;;;;;;;20.43;76.88;99006.11;1720397;80;21427;-55
2021/06/27 01:29:46;;;;;;;6.30;3.17;;;;;;;20.39;76.94;99003.70;1724436;80;20907;-53
2021/06/27 01:32:13;;;;;;;4.08;2.35;;;;;;;20.37;76.92;99004.36;1731682;80;21822;-57
2021/06/27 01:34:39;;;;;;;5.25;2.47;;;;;;;20.36;76.85;98997.17;1737558;80;21129;-53
2021/06/27 01:37:06;;;;;;;5.60;2.15;;;;;;;20.34;76.77;99003.28;1733334;80;21148;-57
2021/06/27 01:39:33;;;;;;;1.62;1.50;;;;;;;20.30;76.62;99005.09;1736339;80;22082;-56
2021/06/27 01:41:59;;;;;;;5.58;2.65;;;;;;;20.27;76.20;99009.49;1739642;80;20934;-53
2021/06/27 01:44:26;;;;;;;5.03;2.10;;;;;;;20.24;76.08;99013.41;1738161;80;21129;-54
2021/06/27 01:46:57;;;;;;;2.05;1.42;;;;;;;20.20;76.18;99007.02;1740973;80;22484;-55
2021/06/27 01:49:23;;;;;;;4.45;2.27;;;;;;;20.18;76.06;99014.00;1734454;80;21057;-56
2021/06/27 01:51:49;;;;;;;3.30;2.00;;;;;;;20.14;76.04;99023.53;1733173;80;21082;-56
2021/06/27 01:54:16;;;;;;;2.87;2.67;;;;;;;20.11;76.08;99018.36;1735983;80;22325;-54
2021/06/27 01:56:42;;;;;;;3.95;2.10;;;;;;;20.08;76.23;99021.38;1734177;80;21057;-54
2021/06/27 01:59:09;;;;;;;4.92;1.62;;;;;;;20.03;76.44;99021.85;1733285;80;21078;-54
2021/06/27 02:01:39;;;;;;;2.75;1.72;;;;;;;20.01;76.47;99023.87;1734173;80;21082;-56
2021/06/27 02:04:08;;;;;;;4.70;2.08;;;;;;;19.99;76.40;99025.87;1740840;80;21809;-56
2021/06/27 02:06:36;;;;;;;6.92;2.15;;;;;;;19.95;76.38;99021.75;1736060;80;21172;-53
2021/06/27 02:09:08;;;;;;;2.90;1.52;;;;;;;19.94;76.50;99019.16;1732161;80;21429;-56
2021/06/27 02:11:37;;;;;;;4.50;1.62;;;;;;;19.91;76.65;99020.31;1733769;80;21092;-56
2021/06/27 02:14:04;;;;;;;5.67;1.70;;;;;;;19.88;76.84;99026.09;1731756;80;21097;-55
2021/06/27 02:16:32;;;;;;;1.98;1.77;;;;;;;19.89;76.80;99028.33;1735054;80;21148;-54
2021/06/27 02:18:58;;;;;;;2.72;1.80;;;;;;;19.91;76.73;99033.11;1732352;80;21333;-57
2021/06/27 02:21:31;;;;;;;1.55;1.35;;;;;;;19.91;76.52;99033.97;1738051;80;21447;-56
2021/06/27 02:23:58;;;;;;;3.85;2.15;;;;;;;19.91;76.57;99037.20;1740226;80;21378;-56
2021/06/27 02:26:25;;;;;;;2.05;1.67;;;;;;;19.87;76.70;99036.66;1739687;80;21085;-56
2021/06/27 02:28:52;;;;;;;4.62;1.87;;;;;;;19.88;76.61;99045.72;1741725;80;22884;-53
2021/06/27 02:31:18;;;;;;;3.45;1.37;;;;;;;19.88;76.43;99044.35;1735317;80;21145;-56
2021/06/27 02:33:46;;;;;;;5.37;1.75;;;;;;;19.86;76.44;99057.29;1723070;80;21010;-57
2021/06/27 02:36:14;;;;;;;5.12;1.40;;;;;;;19.87;76.54;99060.38;1724047;80;21021;-54
2021/06/27 02:38:40;;;;;;;6.00;1.77;;;;;;;19.87;76.41;99055.78;1726555;80;21077;-53
2021/06/27 02:41:08;;;;;;;4.00;1.50;;;;;;;19.89;76.46;99056.50;1719416;80;21077;-53
2021/06/27 02:43:37;;;;;;;5.80;1.80;;;;;;;19.91;76.50;99055.81;1724393;80;21876;-55
2021/06/27 02:46:03;;;;;;;2.17;1.40;;;;;;;19.93;76.46;99051.58;1726412;80;21593;-57
2021/06/27 02:48:30;;;;;;;4.35;2.05;;;;;;;19.94;76.46;99051.94;1724339;80;21244;-57
2021/06/27 02:50:56;;;;;;;3.10;2.10;;;;;;;19.93;76.46;99053.80;1721866;80;21033;-56
2021/06/27 02:53:24;;;;;;;2.70;2.17;;;;;;;19.94;76.49;99049.20;1723905;80;21137;-54
2021/06/27 02:56:07;;;;;;;4.17;2.20;;;;;;;19.93;76.61;99044.25;1722043;80;21152;-54
2021/06/27 02:58:19;;;;;;;4.05;2.33;;;;;;;19.95;76.70;99042.73;1719956;80;21074;-55
2021/06/27 03:00:45;;;;;;;7.37;2.33;;;;;;;19.95;76.79;99044.97;1720013;80;21030;-56
2021/06/27 03:03:12;;;;;;;3.90;1.80;;;;;;;19.99;76.93;99063.27;1718723;80;21041;-52
2021/06/27 03:05:38;;;;;;;5.28;2.20;;;;;;;20.00;76.98;99062.25;1723472;80;22651;-54
2021/06/27 03:08:04;;;;;;;4.70;2.10;;;;;;;20.03;77.15;99064.70;1718623;80;21382;-54
2021/06/27 03:10:31;;;;;;;3.77;2.17;;;;;;;20.06;77.21;99068.50;1718673;80;21364;-56
2021/06/27 03:12:57;;;;;;;4.08;2.02;;;;;;;20.09;77.36;99077.75;1722698;80;21031;-56
2021/06/27 03:15:25;;;;;;;3.08;2.33;;;;;;;20.14;77.34;99075.45;1720767;80;21092;-54
2021/06/27 03:17:51;;;;;;;5.03;2.08;;;;;;;20.17;77.22;99068.29;1719476;80;21266;-53
2021/06/27 03:20:19;;;;;;;4.42;2.35;;;;;;;20.21;77.23;99066.13;1720662;80;21554;-57
2021/06/27 03:22:47;;;;;;;3.50;1.90;;;;;;;20.21;77.18;99070.23;1719229;80;21084;-56
2021/06/27 03:25:14;;;;;;;4.45;3.17;;;;;;;20.24;77.13;99065.84;1720014;80;21575;-55
2021/06/27 03:27:40;;;;;;;4.70;2.95;;;;;;;20.25;77.12;99075.22;1720814;80;21531;-53
2021/06/27 03:30:07;;;;;;;4.40;3.42;;;;;;;20.27;77.16;99075.94;1723036;80;21110;-53
2021/06/27 03:32:36;;;;;;;5.42;2.52;;;;;;;20.26;77.09;99076.95;1722916;80;21048;-56
2021/06/27 03:35:04;;;;;;;2.77;2.58;;;;;;;20.24;77.10;99079.00;1728575;80;21117;-54
2021/06/27 03:37:31;;;;;;;4.25;3.10;;;;;;;20.23;77.21;99081.88;1730677;80;21111;-54
2021/06/27 03:39:57;;;;;;;6.17;2.30;;;;;;;20.22;77.25;99074.19;1728459;80;21441;-55
2021/06/27 03:42:24;;;;;;;2.25;2.00;;;;;;;20.24;77.31;99075.41;1726379;80;22668;-56
2021/06/27 03:44:51;;;;;;;3.72;3.42;;;;;;;20.26;77.36;99070.11;1727851;80;20905;-56
2021/06/27 03:47:17;;;;;;;3.35;3.00;;;;;;;20.28;77.44;99064.00;1727781;80;21969;-56
2021/06/27 03:49:43;;;;;;;3.87;3.67;;;;;;;20.30;77.50;99058.39;1730236;80;21009;-53
2021/06/27 03:52:10;;;;;;;4.35;3.95;;;;;;;20.34;77.49;99063.92;1729530;80;20929;-53
2021/06/27 03:54:36;;;;;;;2.33;2.12;;;;;;;20.37;77.56;99068.59;1731443;80;21499;-55
2021/06/27 03:57:03;;;;;;;4.30;3.70;;;;;;;20.39;77.73;99068.44;1730968;80;21032;-56
2021/06/27 03:59:29;;;;;;;6.15;3.37;;;;;;;20.42;77.80;99052.22;1728095;80;20909;-54
2021/06/27 04:01:55;;;;;;;3.87;3.58;;;;;;;20.45;77.83;99047.83;1732276;80;21060;-57
2021/06/27 04:04:22;;;;;;;3.62;3.35;;;;;;;20.45;77.83;99048.69;1727494;80;21488;-56
2021/06/27 04:06:49;;;;;;;4.50;3.90;;;;;;;20.48;77.79;99052.49;1726122;80;21061;-53
2021/06/27 04:09:16;;;;;;;4.00;3.62;;;;;;;20.51;77.80;99055.41;1729355;80;21045;-56
2021/06/27 04:11:42;;;;;;;6.83;4.45;;;;;;;20.55;77.84;99048.63;1723820;80;21150;-52
2021/06/27 04:14:08;;;;;;;5.12;4.70;;;;;;;20.61;77.86;99049.38;1675094;83;21095;-53
2021/06/27 04:16:35;;;;;;;7.03;4.83;;;;;;;20.63;77.89;99050.95;1727101;80;21378;-54
2021/06/27 04:19:02;;;;;;;5.30;4.40;;;;;;;20.66;77.85;99042.95;1728059;80;21523;-56
2021/06/27 04:21:28;;;;;;;4.95;4.30;;;;;;;20.65;77.83;99044.83;1729502;80;21045;-56
2021/06/27 04:23:54;;;;;;;4.55;4.25;;;;;;;20.67;77.90;99040.58;1727059;80;21064;-53
2021/06/27 04:26:21;;;;;;;5.35;4.35;;;;;;;20.68;77.83;99040.39;1726934;80;21040;-56
2021/06/27 04:28:47;;;;;;;5.35;3.87;;;;;;;20.70;77.75;99037.51;1727218;80;21520;-53
2021/06/27 04:31:13;;;;;;;4.50;4.15;;;;;;;20.72;77.71;99030.88;1736428;80;21527;-56
2021/06/27 04:33:41;;;;;;;8.35;4.67;;;;;;;20.74;77.68;99022.02;1725526;80;21132;-56
2021/06/27 04:36:08;;;;;;;4.58;4.15;;;;;;;20.76;77.65;99019.96;1732648;80;21118;-55
2021/06/27 04:38:34;;;;;;;3.27;3.08;;;;;;;20.80;77.65;99023.77;1725940;80;21054;-56
2021/06/27 04:41:00;;;;;;;4.33;3.92;;;;;;;20.83;77.60;99028.42;1726199;80;21112;-53
2021/06/27 04:43:27;;;;;;;8.18;4.62;;;;;;;20.88;77.60;99026.07;1727252;80;22326;-53
2021/06/27 04:45:53;;;;;;;3.95;3.75;;;;;;;20.93;77.64;99025.08;1728612;80;21018;-56
2021/06/27 04:51:16;;;;;;;6.28;5.28;;;;;;;21.05;77.59;99021.09;1791972;78;28137;-55
2021/06/27 04:53:43;;;;;;;5.90;5.12;;;;;;;21.05;77.47;99025.70;1772104;79;20989;-54
2021/06/27 04:56:09;;;;;;;5.12;4.72;;;;;;;21.08;77.49;99026.77;1769180;79;21967;-53
2021/06/27 04:58:36;;;;;;;6.33;5.90;;;;;;;21.09;77.67;99033.46;1764930;79;21017;-55
2021/06/27 05:01:02;;;;;;;4.35;4.08;;;;;;;21.14;77.63;99043.92;1766728;79;20978;-56
2021/06/27 05:03:30;;;;;;;4.92;4.53;;;;;;;21.15;77.46;99042.40;1760438;79;21527;-55
2021/06/27 05:05:57;;;;;;;5.90;5.60;;;;;;;21.18;77.45;99051.35;1761113;79;21059;-53
2021/06/27 05:08:23;;;;;;;5.20;4.60;;;;;;;21.23;77.42;99066.27;1765720;79;21164;-56
2021/06/27 05:10:50;;;;;;;5.42;5.03;;;;;;;21.28;77.32;99073.98;1762516;79;21002;-56
2021/06/27 05:13:17;;;;;;;4.97;4.58;;;;;;;21.33;77.21;99069.78;1769500;79;20966;-56
2021/06/27 05:15:45;;;;;;;8.98;5.97;;;;;;;21.37;77.29;99075.78;1770183;79;21060;-53
2021/06/27 05:18:12;;;;;;;6.70;5.87;;;;;;;21.43;77.25;99076.53;1761957;79;21490;-53
2021/06/27 05:20:39;;;;;;;6.60;6.10;;;;;;;21.49;76.84;99082.73;1760572;79;21967;-53
2021/06/27 05:23:05;;;;;;;7.45;6.75;;;;;;;21.56;76.43;99081.58;1765464;79;21742;-56
2021/06/27 05:25:32;;;;;;;8.05;7.50;;;;;;;21.61;76.23;99088.29;1769130;79;21061;-57
2021/06/27 05:27:59;;;;;;;7.20;6.58;;;;;;;21.67;76.13;99093.66;1769373;79;21333;-55
2021/06/27 05:30:27;;;;;;;9.55;5.80;;;;;;;21.70;75.93;99094.18;1769788;79;21088;-53
2021/06/27 05:32:54;;;;;;;8.05;7.47;;;;;;;21.77;76.12;99107.61;1766246;79;22305;-56
2021/06/27 05:35:20;;;;;;;8.53;7.33;;;;;;;21.82;76.01;99112.08;1763616;79;21422;-55
2021/06/27 05:37:48;;;;;;;10.55;8.10;;;;;;;21.90;75.91;99114.02;1763387;79;20969;-54
2021/06/27 05:40:15;;;;;;;8.80;5.87;;;;;;;21.99;75.73;99112.22;1765122;80;21132;-53
2021/06/27 05:42:41;;;;;;;6.83;6.33;;;;;;;22.04;75.14;99117.55;1744219;79;21089;-54
2021/06/27 05:45:09;;;;;;;7.12;5.85;;;;;;;22.08;74.40;99116.73;1741952;80;22877;-53
2021/06/27 05:47:36;;;;;;;7.08;6.47;;;;;;;22.14;74.33;99114.20;1741188;80;21119;-54
2021/06/27 05:50:05;;;;;;;6.92;5.85;;;;;;;22.23;74.42;99110.48;1737559;80;21185;-56
2021/06/27 05:52:31;;;;;;;7.75;6.95;;;;;;;22.33;74.68;99112.23;1730389;80;21105;-57
2021/06/27 05:54:58;;;;;;;6.00;5.12;;;;;;;22.42;74.67;99097.55;1731488;80;21101;-56
2021/06/27 05:57:24;;;;;;;7.12;6.58;;;;;;;22.49;73.96;99094.48;1725216;80;21150;-55
2021/06/27 05:59:50;;;;;;;7.03;6.17;;;;;;;22.56;73.22;99092.80;1729116;80;21085;-58
2021/06/27 06:02:17;;;;;;;6.83;6.05;;;;;;;22.64;73.23;99090.08;1726663;80;21344;-53
2021/06/27 06:04:43;;;;;;;7.17;5.15;;;;;;;22.71;73.06;99082.92;1725843;81;21560;-54
2021/06/27 06:07:10;;;;;;;5.05;4.55;;;;;;;22.82;72.63;99080.39;1726284;80;21085;-55
2021/06/27 06:09:36;;;;;;;7.92;5.00;;;;;;;22.94;72.31;99084.55;1724090;80;21129;-55
2021/06/27 06:12:03;;;;;;;6.97;5.25;;;;;;;23.04;72.27;99072.91;1725547;80;21569;-53
2021/06/27 06:14:32;;;;;;;4.40;3.95;;;;;;;23.14;71.51;99072.20;1729360;80;20951;-55
2021/06/27 06:16:58;;;;;;;2.08;1.98;;;;;;;23.23;70.96;99071.19;1726175;80;21308;-54
2021/06/27 06:19:24;;;;;;;3.15;1.60;;;;;;;23.35;70.13;99072.58;1732278;80;21041;-56
2021/06/27 06:21:51;;;;;;;4.78;2.10;;;;;;;23.44;69.55;99083.56;1726109;80;21519;-55
2021/06/27 06:24:18;;;;;;;3.98;1.67;;;;;;;23.55;68.89;99078.63;1664432;83;21141;-55
2021/06/27 06:26:45;;;;;;;3.95;2.08;;;;;;;23.64;68.58;99073.98;1697855;82;21121;-55
2021/06/27 06:29:11;;;;;;;4.37;1.32;;;;;;;23.72;67.70;99075.34;1728503;80;21058;-56
2021/06/27 06:31:38;;;;;;;1.75;1.12;;;;;;;23.78;66.90;99075.16;1721972;80;21432;-55
2021/06/27 06:34:04;;;;;;;7.00;1.10;;;;;;;23.85;67.00;99069.30;1725787;80;21544;-53
2021/06/27 06:36:32;;;;;;;1.90;1.07;;;;;;;23.92;65.39;99064.30;1721780;80;22274;-54
2021/06/27 06:38:59;;;;;;;3.27;0.90;;;;;;;23.95;64.89;99063.95;1722835;80;21046;-54
2021/06/27 06:41:25;;;;;;;1.27;0.80;;;;;;;24.00;64.67;99061.52;1727397;80;21117;-55
2021/06/27 06:43:53;;;;;;;1.87;1.20;;;;;;;24.10;64.81;99063.56;1729806;80;21144;-55
2021/06/27 06:46:19;;;;;;;4.33;0.80;;;;;;;24.14;63.36;99059.44;1723598;80;21136;-55
2021/06/27 06:48:45;;;;;;;5.05;0.98;;;;;;;24.18;62.62;99053.56;1723170;80;21042;-55
2021/06/27 06:51:12;;;;;;;3.00;1.65;;;;;;;24.21;62.74;99054.63;1717574;80;21082;-56
2021/06/27 06:53:39;;;;;;;2.52;1.00;;;;;;;24.27;62.70;99058.90;1718419;81;21383;-54
2021/06/27 06:56:06;;;;;;;1.37;0.70;;;;;;;24.35;62.77;99059.38;1716757;81;21124;-54
2021/06/27 06:58:32;;;;;;;1.52;0.72;;;;;;;24.45;62.29;99067.77;1722582;81;22194;-55
2021/06/27 07:00:59;;;;;;;2.15;0.80;;;;;;;24.58;61.67;99062.22;1719891;81;21064;-55
2021/06/27 07:03:27;;;;;;;4.67;1.22;;;;;;;24.69;60.27;99059.91;1719282;81;21613;-56
2021/06/27 07:05:54;;;;;;;3.92;0.70;;;;;;;24.78;59.34;99054.69;1723588;81;20919;-54
2021/06/27 07:08:21;;;;;;;1.72;0.78;;;;;;;24.89;59.30;99047.92;1719788;81;21370;-55
2021/06/27 07:10:49;;;;;;;5.53;0.80;;;;;;;25.01;59.47;99042.91;1724923;81;21444;-56
2021/06/27 07:13:15;;;;;;;2.95;0.70;;;;;;;25.09;58.34;99031.30;1721958;81;20943;-55
2021/06/27 07:15:42;;;;;;;3.65;0.62;;;;;;;25.16;57.93;99030.91;1642815;84;21504;-55
2021/06/27 07:18:09;;;;;;;1.20;0.62;;;;;;;25.24;57.75;99036.86;1715643;81;21601;-56
2021/06/27 07:20:37;;;;;;;2.58;0.60;;;;;;;25.32;57.51;99035.94;1717318;81;21755;-56
2021/06/27 07:23:03;;;;;;;1.95;0.68;;;;;;;25.38;57.18;99038.80;1722540;81;21152;-54
2021/06/27 07:25:29;;;;;;;1.45;0.60;;;;;;;25.43;57.03;99041.02;1644420;84;20902;-54
2021/06/27 07:27:56;;;;;;;5.25;0.82;;;;;;;25.44;56.10;99040.80;1644456;85;20942;-55
2021/06/27 07:30:22;;;;;;;5.67;0.80;;;;;;;25.45;55.69;99027.36;1720265;81;20966;-54
2021/06/27 07:32:48;;;;;;;4.78;0.70;;;;;;;25.47;56.20;99032.17;1718221;81;22216;-55
2021/06/27 07:35:14;;;;;;;1.65;0.70;;;;;;;25.51;55.99;99030.77;1716225;81;21151;-55
2021/06/27 07:37:43;;;;;;;3.80;0.88;;;;;;;25.53;55.56;99027.28;1643961;84;21030;-55
2021/06/27 07:40:10;;;;;;;2.47;0.78;;;;;;;25.56;55.25;99020.55;1720380;81;21158;-55
2021/06/27 07:42:37;;;;;;;1.70;0.68;;;;;;;25.60;55.22;99015.88;1717697;81;21113;-55
2021/06/27 07:45:06;;;;;;;5.12;0.70;;;;;;;25.65;55.34;99004.31;1718539;81;21105;-54
2021/06/27 07:47:33;;;;;;;3.10;0.75;;;;;;;25.76;55.51;99012.64;1718861;81;21527;-55
2021/06/27 07:50:01;;;;;;;1.50;0.70;;;;;;;25.85;55.70;99001.34;1718345;80;21295;-55
2021/06/27 07:52:27;;;;;;;1.95;0.70;;;;;;;25.93;55.03;99002.63;1722083;81;20991;-54
2021/06/27 07:54:53;;;;;;;5.17;0.88;;;;;;;25.99;54.81;99000.48;1722735;81;21112;-54
2021/06/27 07:57:19;;;;;;;1.45;0.80;;;;;;;26.05;55.52;98990.58;1723670;81;21096;-55
2021/06/27 07:59:46;;;;;;;3.17;0.70;;;;;;;26.10;54.08;98981.23;1721943;81;22604;-54
2021/06/27 08:02:12;;;;;;;5.45;1.30;;;;;;;26.13;55.52;98986.86;1720544;81;22177;-55
2021/06/27 08:04:38;;;;;;;2.02;1.20;;;;;;;26.17;56.34;98984.92;1720202;81;21120;-56
2021/06/27 08:09:32;;;;;;;1.35;1.00;;;;;;;26.27;57.60;98983.28;1862155;75;21721;-54
2021/06/27 08:11:58;;;;;;;1.17;1.07;;;;;;;26.26;57.86;98980.20;1831590;77;21409;-54
2021/06/27 08:14:25;;;;;;;1.75;1.30;;;;;;;26.32;58.02;98983.03;1829126;77;21128;-56
2021/06/27 08:16:51;;;;;;;2.30;1.30;;;;;;;26.39;57.52;98988.63;1830151;77;20977;-57
2021/06/27 08:19:18;;;;;;;1.20;1.10;;;;;;;26.43;57.09;98995.48;1835681;77;21067;-57
2021/06/27 08:21:44;;;;;;;1.87;1.30;;;;;;;26.42;56.47;98984.63;1835603;77;21865;-57
2021/06/27 08:24:11;;;;;;;2.37;1.50;;;;;;;26.41;56.81;98989.81;1831161;77;21044;-57
2021/06/27 08:26:37;;;;;;;1.25;1.00;;;;;;;26.39;57.12;98988.63;1831457;77;21118;-55
2021/06/27 08:29:03;;;;;;;1.30;1.00;;;;;;;26.40;56.77;98987.58;1791837;77;21085;-55
2021/06/27 08:31:31;;;;;;;2.67;0.90;;;;;;;26.41;55.87;98983.77;1832633;76;21056;-55
2021/06/27 08:33:58;;;;;;;1.07;1.00;;;;;;;26.38;55.98;98981.39;1829547;77;21135;-56
2021/06/27 08:36:27;;;;;;;1.42;0.90;;;;;;;26.40;56.10;98972.92;1831322;77;21024;-55
2021/06/27 08:38:54;;;;;;;3.00;1.00;;;;;;;26.44;56.80;98978.41;1829972;77;21119;-55
2021/06/27 08:41:20;;;;;;;1.00;1.00;;;;;;;26.49;57.38;98981.42;1831151;76;20986;-56
2021/06/27 08:43:47;;;;;;;1.42;1.12;;;;;;;26.54;57.85;98974.81;1838426;76;21049;-54
2021/06/27 08:46:14;;;;;;;3.98;1.10;;;;;;;26.60;56.30;98969.89;1838554;76;20894;-54
2021/06/27 08:48:43;;;;;;;1.27;0.95;;;;;;;26.57;56.16;98968.36;1837412;77;20972;-57
2021/06/27 08:51:11;;;;;;;2.00;1.50;;;;;;;26.61;56.91;98972.45;1833983;76;22386;-54
2021/06/27 08:53:40;;;;;;;1.98;1.60;;;;;;;26.63;57.76;98967.57;1805997;77;21737;-55
2021/06/27 08:56:08;;;;;;;3.85;1.80;;;;;;;26.60;58.59;98967.13;1836232;76;21080;-56
2021/06/27 08:58:41;;;;;;;2.25;1.20;;;;;;;26.56;58.23;98961.12;1841649;77;20934;-55
2021/06/27 09:01:17;;;;;;;1.95;1.47;;;;;;;26.56;58.45;98967.17;1834537;76;21044;-55
2021/06/27 09:03:45;;;;;;;2.30;1.95;;;;;;;26.57;58.71;98963.37;1773500;79;21597;-55
2021/06/27 09:06:14;;;;;;;1.40;1.30;;;;;;;26.59;58.41;98969.55;1796506;78;21074;-56
2021/06/27 09:08:40;;;;;;;1.67;1.57;;;;;;;26.60;58.09;98961.08;1770992;79;21100;-55
2021/06/27 09:11:13;;;;;;;2.35;1.77;;;;;;;26.60;58.16;98961.08;1747721;80;21112;-56
2021/06/27 09:13:44;;;;;;;1.40;1.30;;;;;;;26.54;58.08;98961.02;1745648;80;21028;-56
2021/06/27 09:16:19;;;;;;;1.30;1.20;;;;;;;26.48;58.23;98957.63;1762649;80;21147;-56
2021/06/27 09:18:47;;;;;;;1.98;1.07;;;;;;;26.49;59.20;98964.87;1765197;80;20882;-56
2021/06/27 09:21:14;;;;;;;2.20;1.22;;;;;;;26.50;58.80;98960.53;1760975;80;21139;-55
2021/06/27 09:23:42;;;;;;;2.08;1.42;;;;;;;26.47;58.12;98957.30;1754593;80;21492;-57
2021/06/27 09:26:10;;;;;;;1.67;1.10;;;;;;;26.42;58.04;98956.52;1764224;80;20984;-56
2021/06/27 09:28:47;;;;;;;2.67;1.00;;;;;;;26.36;58.07;98955.40;1764839;80;21107;-56
2021/06/27 09:31:42;;;;;;;1.45;1.20;;;;;;;26.35;58.16;98953.69;1762686;80;20907;-55
2021/06/27 09:34:13;;;;;;;4.00;1.00;;;;;;;26.36;57.89;98951.26;1760891;80;21017;-57
2021/06/27 09:36:51;;;;;;;1.47;1.10;;;;;;;26.41;58.35;98956.18;1766552;79;20977;-56
2021/06/27 09:39:18;;;;;;;1.10;1.00;;;;;;;26.44;57.79;98961.32;1763411;80;20922;-55
2021/06/27 09:41:52;;;;;;;1.12;0.98;;;;;;;26.42;58.00;98969.45;1766787;80;21115;-55
2021/06/27 09:44:19;;;;;;;1.55;1.10;;;;;;;26.40;57.52;98969.64;1763133;80;21961;-56
2021/06/27 09:46:52;;;;;;;1.70;1.25;;;;;;;26.40;56.91;98968.78;1764072;80;21794;-55
2021/06/27 09:49:31;;;;;;;0.82;0.82;;;;;;;26.41;57.56;98979.63;1764404;80;20910;-56
2021/06/27 09:52:06;;;;;;;0.90;0.90;;;;;;;26.38;56.74;98978.63;1763802;80;20960;-55
2021/06/27 09:54:31;;;;;;;1.05;0.98;;;;;;;26.34;56.75;98985.60;1766434;80;21229;-55
2021/06/27 09:56:58;;;;;;;1.22;1.00;;;;;;;26.32;57.34;98981.65;1764924;80;20954;-54
2021/06/27 09:59:40;;;;;;;4.20;1.35;;;;;;;26.33;57.73;98988.88;1763272;80;20977;-54
2021/06/27 10:02:07;;;;;;;1.42;0.90;;;;;;;26.34;58.52;98989.73;1760192;80;21484;-54
2021/06/27 10:04:35;;;;;;;3.95;1.00;;;;;;;26.35;58.83;98988.70;1762255;80;20929;-54
2021/06/27 10:07:04;;;;;;;2.50;1.10;;;;;;;26.36;59.01;98991.79;1764247;79;21095;-55
2021/06/27 10:09:36;;;;;;;2.85;1.10;;;;;;;26.39;58.64;98995.52;1758444;80;20877;-54
2021/06/27 10:12:05;;;;;;;1.17;1.07;;;;;;;26.38;58.44;98999.33;1755954;81;21013;-54
2021/06/27 10:14:36;;;;;;;2.10;0.90;;;;;;;26.37;58.03;99002.61;1752305;81;21092;-55
2021/06/27 10:17:05;;;;;;;1.87;1.10;;;;;;;26.37;58.52;99006.74;1740344;81;21072;-55
2021/06/27 10:19:31;;;;;;;1.65;1.30;;;;;;;26.38;58.60;99013.13;1755444;81;22509;-54
2021/06/27 10:21:59;;;;;;;1.52;1.22;;;;;;;26.33;58.42;99017.84;1768315;79;22569;-54
2021/06/27 10:24:26;;;;;;;1.75;1.00;;;;;;;26.30;58.93;99020.98;1772071;79;21380;-54
2021/06/27 10:26:52;;;;;;;1.30;1.20;;;;;;;26.31;58.77;99026.84;1734471;81;22232;-55
2021/06/27 10:29:20;;;;;;;5.25;1.40;;;;;;;26.34;58.54;99037.50;1742823;80;22335;-54
2021/06/27 10:31:49;;;;;;;1.87;1.20;;;;;;;26.36;58.97;99037.31;1750857;80;21666;-53
2021/06/27 10:34:16;;;;;;;1.25;1.10;;;;;;;26.39;58.72;99036.91;1754390;80;21048;-54
2021/06/27 10:36:43;;;;;;;1.55;1.30;;;;;;;26.41;57.79;99035.34;1743969;80;21808;-54
2021/06/27 10:39:18;;;;;;;1.35;1.25;;;;;;;26.38;58.30;99040.19;1743185;80;21475;-54
2021/06/27 10:41:59;;;;;;;1.75;1.22;;;;;;;26.38;58.67;99033.29;1753268;80;21579;-55
2021/06/27 10:44:32;;;;;;;1.77;0.98;;;;;;;26.43;59.11;99032.73;1738969;80;21538;-56
2021/06/27 10:46:59;;;;;;;1.30;1.10;;;;;;;26.48;58.78;99040.42;1744080;80;21049;-57
2021/06/27 10:49:37;;;;;;;3.37;0.93;;;;;;;26.52;58.06;99041.23;1774303;79;21124;-58
2021/06/27 10:52:11;;;;;;;1.30;1.20;;;;;;;26.60;57.81;99037.51;1747466;81;21126;-57
2021/06/27 10:54:40;;;;;;;9.88;5.08;;;;;;;26.69;57.57;99048.77;1750025;81;20989;-57
2021/06/27 10:57:14;;;;;;;2.87;1.37;;;;;;;26.80;57.46;99051.00;1778355;79;22083;-56
2021/06/27 10:59:53;;;;;;;2.95;2.67;;;;;;;26.85;56.88;99048.53;1772451;79;21128;-56
2021/06/27 11:02:43;;;;;;;2.50;1.90;;;;;;;26.87;56.49;99055.25;1779784;79;21551;-56
2021/06/27 11:05:33;;;;;;;4.20;0.98;;;;;;;26.88;56.33;99047.30;1772871;78;21507;-54
2021/06/27 11:08:00;;;;;;;1.12;0.98;;;;;;;26.92;57.17;99043.97;1768722;79;21511;-54
2021/06/27 11:10:28;;;;;;;1.00;1.00;;;;;;;26.99;56.91;99042.13;1735770;80;21454;-55
2021/06/27 11:13:10;;;;;;;3.00;1.17;;;;;;;27.10;57.13;99046.30;1779886;78;22351;-56
2021/06/27 11:15:41;;;;;;;1.55;1.00;;;;;;;27.14;56.62;99041.24;1746332;80;21077;-56
2021/06/27 11:18:10;;;;;;;1.32;0.98;;;;;;;27.13;55.47;99050.05;1749941;80;21099;-56
2021/06/27 11:20:57;;;;;;;1.32;0.98;;;;;;;27.07;55.45;99057.20;1756174;80;21075;-57
2021/06/27 11:23:51;;;;;;;3.25;1.10;;;;;;;27.00;55.73;99040.23;1752254;79;21145;-54
2021/06/27 11:26:43;;;;;;;1.50;1.10;;;;;;;26.93;56.72;99048.97;1753967;80;21005;-58
2021/06/27 11:29:30;;;;;;;4.92;1.67;;;;;;;26.85;56.32;99051.30;1751597;80;21074;-56
2021/06/27 11:32:15;;;;;;;2.00;1.00;;;;;;;26.78;56.70;99041.23;1754165;80;21048;-55
2021/06/27 11:34:56;;;;;;;1.77;1.02;;;;;;;26.73;57.01;99045.94;1751270;80;21033;-57
2021/06/27 11:37:28;;;;;;;1.62;0.80;;;;;;;26.71;56.75;99048.06;1780116;78;21525;-56
2021/06/27 11:39:58;;;;;;;1.12;1.00;;;;;;;26.64;55.95;99049.33;1776274;78;21102;-56
2021/06/27 11:42:30;;;;;;;1.30;0.80;;;;;;;26.58;55.96;99057.54;1783477;78;21088;-56
2021/06/27 11:45:15;;;;;;;1.65;0.95;;;;;;;26.53;55.31;99060.03;1750313;80;21014;-57